createdAt,value
2022-08-26T00:00:49.697Z,46.95
2022-08-26T00:03:24.028Z,48.25
2022-08-26T00:05:57.472Z,56.35
2022-08-26T00:08:30.670Z,53.98
2022-08-26T00:11:04.356Z,53.35
2022-08-26T00:13:38.830Z,51.88
2022-08-26T00:16:13.281Z,47.55
2022-08-26T00:18:46.495Z,49.98
2022-08-26T00:21:20.003Z,49.27
2022-08-26T00:23:53.166Z,50.45
2022-08-26T00:26:28.560Z,51.58
2022-08-26T00:29:01.346Z,57.30
2022-08-26T00:31:34.691Z,52.90
2022-08-26T00:34:11.210Z,55.63
2022-08-26T00:36:45.325Z,49.55
2022-08-26T00:39:19.987Z,68.25
2022-08-26T00:41:53.578Z,54.63
2022-08-26T00:44:27.002Z,54.03
2022-08-26T00:47:04.465Z,51.80
2022-08-26T00:49:41.504Z,51.97
2022-08-26T00:52:17.271Z,50.33
2022-08-26T00:54:53.310Z,45.03
2022-08-26T00:57:27.141Z,50.65
2022-08-26T01:00:02.825Z,49.85
2022-08-26T01:02:36.190Z,49.00
2022-08-26T01:05:12.980Z,42.17
2022-08-26T01:07:46.762Z,43.90
2022-08-26T01:10:22.875Z,42.48
2022-08-26T01:12:58.982Z,46.45
2022-08-26T01:15:35.047Z,41.50
2022-08-26T01:18:09.210Z,34.33
2022-08-26T01:20:47.692Z,37.15
2022-08-26T01:23:21.698Z,40.10
2022-08-26T01:25:59.038Z,38.23
2022-08-26T01:28:35.304Z,40.28
2022-08-26T01:31:14.317Z,34.75
2022-08-26T01:33:52.423Z,36.35
2022-08-26T01:36:26.636Z,31.07
2022-08-26T01:39:00.693Z,39.48
2022-08-26T01:41:38.693Z,45.33
2022-08-26T01:44:16.755Z,49.20
2022-08-26T01:46:53.630Z,50.95
2022-08-26T01:49:28.743Z,50.23
2022-08-26T01:52:07.622Z,46.60
2022-08-26T01:54:46.281Z,44.13
2022-08-26T01:57:20.544Z,52.08
2022-08-26T01:59:57.417Z,54.40
2022-08-26T02:02:32.078Z,46.60
2022-08-26T02:05:08.907Z,46.02
2022-08-26T02:07:43.685Z,49.30
2022-08-26T02:10:18.129Z,48.73
2022-08-26T02:12:53.654Z,53.15
2022-08-26T02:15:28.318Z,55.00
2022-08-26T02:18:03.984Z,49.77
2022-08-26T02:20:38.567Z,49.53
2022-08-26T02:23:12.879Z,47.80
2022-08-26T02:25:50.784Z,58.50
2022-08-26T02:28:27.046Z,50.70
2022-08-26T02:31:02.677Z,48.90
2022-08-26T02:33:37.026Z,47.15
2022-08-26T02:36:13.410Z,50.20
2022-08-26T02:38:47.452Z,51.98
2022-08-26T02:41:23.075Z,52.43
2022-08-26T02:43:57.103Z,49.77
2022-08-26T02:46:32.155Z,47.33
2022-08-26T02:49:06.722Z,48.78
2022-08-26T02:51:40.857Z,45.70
2022-08-26T02:54:17.231Z,53.40
2022-08-26T02:56:51.646Z,58.98
2022-08-26T02:59:25.654Z,54.70
2022-08-26T03:02:01.538Z,48.90
2022-08-26T03:04:35.818Z,48.17
2022-08-26T03:07:10.131Z,50.73
2022-08-26T03:09:44.200Z,52.95
2022-08-26T03:12:18.279Z,57.30
2022-08-26T03:14:52.783Z,58.20
2022-08-26T03:17:26.858Z,48.87
2022-08-26T03:20:00.698Z,48.00
2022-08-26T03:22:36.079Z,61.55
2022-08-26T03:25:13.489Z,53.70
2022-08-26T03:27:49.249Z,58.65
2022-08-26T03:30:45.073Z,55.92
2022-08-26T03:33:16.942Z,56.40
2022-08-26T03:35:50.902Z,61.40
2022-08-26T03:38:25.915Z,57.95
2022-08-26T03:41:00.753Z,51.50
2022-08-26T03:43:34.540Z,57.88
2022-08-26T03:46:09.040Z,63.50
2022-08-26T03:48:43.013Z,59.48
2022-08-26T03:51:18.222Z,63.52
2022-08-26T03:53:51.719Z,63.15
2022-08-26T03:56:25.036Z,56.25
2022-08-26T03:58:59.147Z,59.90
2022-08-26T04:01:33.618Z,58.68
2022-08-26T04:04:07.222Z,54.33
2022-08-26T04:06:44.562Z,56.33
2022-08-26T04:11:51.390Z,67.85
2022-08-26T04:14:26.222Z,59.27
2022-08-26T04:16:59.667Z,61.15
2022-08-26T04:19:33.707Z,66.42
2022-08-26T04:22:07.967Z,63.58
2022-08-26T04:24:41.397Z,78.67
2022-08-26T04:27:14.981Z,67.90
2022-08-26T04:29:53.566Z,67.92
2022-08-26T04:32:24.868Z,68.42
2022-08-26T04:34:58.079Z,60.60
2022-08-26T04:37:34.631Z,61.35
2022-08-26T04:40:10.404Z,66.42
2022-08-26T04:42:44.535Z,63.00
2022-08-26T04:45:18.006Z,63.65
2022-08-26T04:47:57.722Z,72.82
2022-08-26T04:50:31.094Z,63.87
2022-08-26T04:53:05.549Z,58.15
2022-08-26T04:55:42.860Z,58.95
2022-08-26T04:58:18.135Z,62.05
2022-08-26T05:00:53.578Z,65.35
2022-08-26T05:03:30.527Z,63.68
2022-08-26T05:06:06.276Z,60.40
2022-08-26T05:08:39.641Z,64.47
2022-08-26T05:11:14.490Z,58.75
2022-08-26T05:13:47.789Z,64.37
2022-08-26T05:16:21.087Z,65.97
2022-08-26T05:18:55.008Z,63.63
2022-08-26T05:21:29.899Z,59.63
2022-08-26T05:24:03.170Z,63.33
2022-08-26T05:26:36.656Z,62.58
2022-08-26T05:29:10.163Z,62.05
2022-08-26T05:31:43.423Z,62.95
2022-08-26T05:34:16.657Z,67.00
2022-08-26T05:36:49.777Z,66.42
2022-08-26T05:39:24.619Z,61.13
2022-08-26T05:41:57.861Z,53.73
2022-08-26T05:44:53.819Z,60.33
2022-08-26T05:47:07.576Z,54.93
2022-08-26T05:49:43.745Z,63.68
2022-08-26T05:52:16.979Z,55.70
2022-08-26T05:54:50.344Z,57.98
2022-08-26T05:57:23.540Z,49.30
2022-08-26T05:59:57.221Z,52.45
2022-08-26T06:02:30.804Z,53.13
2022-08-26T06:05:04.407Z,48.38
2022-08-26T06:07:56.913Z,45.78
2022-08-26T06:10:32.858Z,40.45
2022-08-26T06:13:11.913Z,49.25
2022-08-26T06:15:44.309Z,25.65
2022-08-26T06:18:20.135Z,29.12
2022-08-26T06:20:57.850Z,24.00
2022-08-26T06:23:48.842Z,22.85
2022-08-26T06:26:22.318Z,28.50
2022-08-26T06:28:56.198Z,25.70
2022-08-26T06:31:30.156Z,21.73
2022-08-26T06:34:08.539Z,13.98
2022-08-26T06:36:39.592Z,13.50
2022-08-26T06:39:14.710Z,18.37
2022-08-26T06:41:48.286Z,19.65
2022-08-26T06:44:23.505Z,17.98
2022-08-26T06:46:56.816Z,11.93
2022-08-26T06:49:30.438Z,19.37
2022-08-26T06:52:03.883Z,15.25
2022-08-26T06:54:37.251Z,19.62
2022-08-26T06:57:12.268Z,17.00
2022-08-26T06:59:48.173Z,18.57
2022-08-26T07:02:23.546Z,13.98
2022-08-26T07:04:58.667Z,19.65
2022-08-26T07:07:31.695Z,14.47
2022-08-26T07:10:05.271Z,17.52
2022-08-26T07:12:39.144Z,19.52
2022-08-26T07:15:14.365Z,15.25
2022-08-26T07:17:48.115Z,14.73
2022-08-26T07:20:21.894Z,14.60
2022-08-26T07:22:55.111Z,15.68
2022-08-26T07:25:28.235Z,16.02
2022-08-26T07:28:02.046Z,12.33
2022-08-26T07:30:39.184Z,14.43
2022-08-26T07:33:14.133Z,11.38
2022-08-26T07:35:47.469Z,9.55
2022-08-26T07:38:20.422Z,13.98
2022-08-26T07:40:53.819Z,11.18
2022-08-26T07:43:27.492Z,7.20
2022-08-26T07:46:03.114Z,7.27
2022-08-26T07:48:37.785Z,9.08
2022-08-26T07:51:11.051Z,10.40
2022-08-26T07:53:44.690Z,10.95
2022-08-26T07:56:19.635Z,9.20
2022-08-26T07:58:53.375Z,9.25
2022-08-26T08:01:29.090Z,11.93
2022-08-26T08:04:05.356Z,9.45
2022-08-26T08:09:13.038Z,8.13
2022-08-26T08:11:47.506Z,10.63
2022-08-26T08:14:22.293Z,10.55
2022-08-26T08:16:55.733Z,11.45
2022-08-26T08:19:36.639Z,7.37
2022-08-26T08:22:05.131Z,10.23
2022-08-26T08:27:12.537Z,16.15
2022-08-26T08:29:47.491Z,10.82
2022-08-26T08:32:21.002Z,14.80
2022-08-26T08:34:54.432Z,9.90
2022-08-26T08:37:27.780Z,11.68
2022-08-26T08:40:01.943Z,7.67
2022-08-26T08:42:46.889Z,13.88
2022-08-26T08:45:23.716Z,9.13
2022-08-26T08:47:59.813Z,7.95
2022-08-26T08:50:36.544Z,7.83
2022-08-26T08:53:16.022Z,9.78
2022-08-26T08:56:02.160Z,12.88
2022-08-26T08:58:46.534Z,8.73
2022-08-26T09:01:28.727Z,7.50
2022-08-26T09:04:12.070Z,8.03
2022-08-26T09:06:48.671Z,7.33
2022-08-26T09:09:25.943Z,13.18
2022-08-26T09:11:59.560Z,7.80
2022-08-26T09:14:33.865Z,9.68
2022-08-26T09:17:10.805Z,10.13
2022-08-26T09:19:47.009Z,13.22
2022-08-26T09:22:31.710Z,11.88
2022-08-26T09:25:06.374Z,13.00
2022-08-26T09:27:47.476Z,8.40
2022-08-26T09:30:26.598Z,11.85
2022-08-26T09:33:10.213Z,10.80
2022-08-26T09:35:44.574Z,7.67
2022-08-26T09:38:29.239Z,10.13
2022-08-26T09:41:05.120Z,9.88
2022-08-26T09:46:16.899Z,7.70
2022-08-26T09:48:51.803Z,7.80
2022-08-26T09:51:32.639Z,9.28
2022-08-26T09:54:08.135Z,7.12
2022-08-26T09:56:42.801Z,11.63
2022-08-26T09:59:18.900Z,7.95
2022-08-26T10:01:53.366Z,9.68
2022-08-26T10:04:28.315Z,7.28
2022-08-26T10:07:03.681Z,14.15
2022-08-26T10:09:39.605Z,8.10
2022-08-26T10:14:58.945Z,8.78
2022-08-26T10:17:38.337Z,12.70
2022-08-26T10:22:51.139Z,12.27
2022-08-26T10:25:28.703Z,10.90
2022-08-26T10:28:08.801Z,10.53
2022-08-26T10:30:47.434Z,12.05
2022-08-26T10:33:21.469Z,6.97
2022-08-26T10:35:59.400Z,8.63
2022-08-26T10:38:35.743Z,8.65
2022-08-26T10:41:16.834Z,8.75
2022-08-26T10:43:53.554Z,11.43
2022-08-26T10:46:30.502Z,7.78
2022-08-26T10:49:07.852Z,8.28
2022-08-26T10:51:46.474Z,11.68
2022-08-26T10:54:24.027Z,9.75
2022-08-26T10:57:02.470Z,12.07
2022-08-26T10:59:55.084Z,11.00
2022-08-26T11:02:32.426Z,7.62
2022-08-26T11:05:09.507Z,10.78
2022-08-26T11:07:46.273Z,11.70
2022-08-26T11:13:10.527Z,11.60
2022-08-26T11:16:03.504Z,14.78
2022-08-26T11:18:42.081Z,11.53
2022-08-26T11:22:06.719Z,12.07
2022-08-26T11:24:50.843Z,10.80
2022-08-26T11:27:56.245Z,8.38
2022-08-26T11:30:58.479Z,12.85
2022-08-26T11:34:03.895Z,9.08
2022-08-26T11:37:00.756Z,8.37
2022-08-26T11:39:38.407Z,9.13
2022-08-26T11:42:23.037Z,9.60
2022-08-26T11:44:58.889Z,8.05
2022-08-26T11:47:34.220Z,7.70
2022-08-26T11:50:17.547Z,14.23
2022-08-26T11:52:59.430Z,13.50
2022-08-26T11:55:34.855Z,10.93
2022-08-26T11:58:08.911Z,6.42
2022-08-26T12:00:50.797Z,9.03
2022-08-26T12:03:27.572Z,9.63
2022-08-26T12:06:01.751Z,10.78
2022-08-26T12:08:39.908Z,10.55
2022-08-26T12:11:17.654Z,7.65
2022-08-26T12:14:03.459Z,8.40
2022-08-26T12:19:27.385Z,10.30
2022-08-26T12:22:04.404Z,6.87
2022-08-26T12:24:39.808Z,5.80
2022-08-26T12:27:19.131Z,9.20
2022-08-26T12:30:08.401Z,6.10
2022-08-26T12:32:57.317Z,6.08
2022-08-26T12:35:22.479Z,5.58
2022-08-26T12:40:39.616Z,8.55
2022-08-26T12:43:17.279Z,9.18
2022-08-26T12:46:00.710Z,9.83
2022-08-26T12:48:38.561Z,9.63
2022-08-26T12:51:23.182Z,7.53
2022-08-26T12:54:00.616Z,9.18
2022-08-26T12:56:38.591Z,11.90
2022-08-26T12:59:23.377Z,7.50
2022-08-26T13:01:57.534Z,6.22
2022-08-26T13:04:41.940Z,7.53
2022-08-26T13:07:18.637Z,8.30
2022-08-26T13:09:54.580Z,6.45
2022-08-26T13:12:31.648Z,6.42
2022-08-26T13:15:07.990Z,6.67
2022-08-26T13:17:42.206Z,8.50
2022-08-26T13:20:16.295Z,6.75
2022-08-26T13:22:58.519Z,6.75
2022-08-26T13:25:27.113Z,7.83
2022-08-26T13:28:01.102Z,6.92
2022-08-26T13:30:34.852Z,8.90
2022-08-26T13:33:09.378Z,9.35
2022-08-26T13:35:44.765Z,8.33
2022-08-26T13:38:33.013Z,8.90
2022-08-26T13:40:54.434Z,9.30
2022-08-26T13:43:28.865Z,10.60
2022-08-26T13:46:03.150Z,7.85
2022-08-26T13:48:38.282Z,10.70
2022-08-26T13:51:13.953Z,6.33
2022-08-26T13:53:48.041Z,10.00
2022-08-26T13:56:23.002Z,5.92
2022-08-26T13:58:57.188Z,5.80
2022-08-26T14:01:32.594Z,8.83
2022-08-26T14:04:07.395Z,8.10
2022-08-26T14:06:41.234Z,8.53
2022-08-26T14:09:15.268Z,5.90
2022-08-26T14:11:54.462Z,6.87
2022-08-26T14:14:25.189Z,9.90
2022-08-26T14:17:00.504Z,11.93
2022-08-26T14:19:34.841Z,6.30
2022-08-26T14:22:12.500Z,9.30
2022-08-26T14:24:46.517Z,7.50
2022-08-26T14:27:20.804Z,9.25
2022-08-26T14:29:54.865Z,9.53
2022-08-26T14:32:30.360Z,11.60
2022-08-26T14:35:04.422Z,6.00
2022-08-26T14:37:38.408Z,7.75
2022-08-26T14:40:14.982Z,8.80
2022-08-26T14:42:53.804Z,10.82
2022-08-26T14:45:29.056Z,9.28
2022-08-26T14:48:03.004Z,8.90
2022-08-26T14:50:37.302Z,11.03
2022-08-26T14:53:28.751Z,9.40
2022-08-26T14:56:02.650Z,9.93
2022-08-26T14:58:38.421Z,10.40
2022-08-26T15:01:13.020Z,7.83
2022-08-26T15:03:48.974Z,22.10
2022-08-26T15:06:23.754Z,10.00
2022-08-26T15:08:57.665Z,10.13
2022-08-26T15:11:31.700Z,9.03
2022-08-26T15:14:07.487Z,10.38
2022-08-26T15:16:43.319Z,8.47
2022-08-26T15:19:18.925Z,14.13
2022-08-26T15:21:53.231Z,14.10
2022-08-26T15:24:28.943Z,8.00
2022-08-26T15:27:02.962Z,10.43
2022-08-26T15:29:37.528Z,14.30
2022-08-26T15:32:11.499Z,7.00
2022-08-26T15:34:45.446Z,8.00
2022-08-26T15:37:19.359Z,11.75
2022-08-26T15:39:53.796Z,13.68
2022-08-26T15:42:27.761Z,10.72
2022-08-26T15:45:01.858Z,22.35
2022-08-26T15:47:55.917Z,11.48
2022-08-26T15:50:13.384Z,12.53
2022-08-26T15:52:47.913Z,15.18
2022-08-26T15:55:23.385Z,13.65
2022-08-26T15:57:57.657Z,10.45
2022-08-26T16:00:31.521Z,9.53
2022-08-26T16:03:08.604Z,9.10
2022-08-26T16:05:44.305Z,10.13
2022-08-26T16:08:18.363Z,17.65
2022-08-26T16:10:52.981Z,10.48
2022-08-26T16:13:26.924Z,8.83
2022-08-26T16:16:03.098Z,10.82
2022-08-26T16:18:38.064Z,13.43
2022-08-26T16:21:14.177Z,13.80
2022-08-26T16:23:48.679Z,14.53
2022-08-26T16:26:25.414Z,18.17
2022-08-26T16:28:59.472Z,15.10
2022-08-26T16:31:33.489Z,11.15
2022-08-26T16:34:08.170Z,13.80
2022-08-26T16:36:42.360Z,11.18
2022-08-26T16:39:16.435Z,11.45
2022-08-26T16:41:50.428Z,10.60
2022-08-26T16:44:25.034Z,22.07
2022-08-26T16:47:00.691Z,12.68
2022-08-26T16:49:34.656Z,20.17
2022-08-26T16:52:10.095Z,18.92
2022-08-26T16:54:44.287Z,18.15
2022-08-26T16:57:18.193Z,17.95
2022-08-26T16:59:52.202Z,12.53
2022-08-26T17:02:26.688Z,15.83
2022-08-26T17:05:00.840Z,16.90
2022-08-26T17:07:35.801Z,16.07
2022-08-26T17:10:13.001Z,16.07
2022-08-26T17:12:47.091Z,23.55
2022-08-26T17:15:22.127Z,14.75
2022-08-26T17:17:56.189Z,16.35
2022-08-26T17:20:30.124Z,18.27
2022-08-26T17:23:03.401Z,14.90
2022-08-26T17:25:36.771Z,15.72
2022-08-26T17:28:13.500Z,19.10
2022-08-26T17:30:45.216Z,14.83
2022-08-26T17:33:24.448Z,15.83
2022-08-26T17:35:55.218Z,19.92
2022-08-26T17:38:29.669Z,18.23
2022-08-26T17:41:03.101Z,14.30
2022-08-26T17:43:36.665Z,18.65
2022-08-26T17:46:11.491Z,20.10
2022-08-26T17:48:45.504Z,16.73
2022-08-26T17:51:20.167Z,13.20
2022-08-26T17:53:53.922Z,11.78
2022-08-26T17:56:30.061Z,15.40
2022-08-26T17:59:04.105Z,13.93
2022-08-26T18:01:38.714Z,15.53
2022-08-26T18:04:14.906Z,18.00
2022-08-26T18:06:48.275Z,13.88
2022-08-26T18:09:21.751Z,13.58
2022-08-26T18:11:54.959Z,14.13
2022-08-26T18:14:28.254Z,12.15
2022-08-26T18:17:01.526Z,15.23
2022-08-26T18:19:35.427Z,10.35
2022-08-26T18:22:08.871Z,15.65
2022-08-26T18:24:42.382Z,13.58
2022-08-26T18:27:17.401Z,14.40
2022-08-26T18:29:50.664Z,13.70
2022-08-26T18:32:23.934Z,15.23
2022-08-26T18:34:57.236Z,11.50
2022-08-26T18:37:31.638Z,14.00
2022-08-26T18:40:08.420Z,15.85
2022-08-26T18:42:42.295Z,14.90
2022-08-26T18:45:16.362Z,12.93
2022-08-26T18:47:49.591Z,12.15
2022-08-26T18:50:23.104Z,15.15
2022-08-26T18:52:56.407Z,17.25
2022-08-26T18:55:29.812Z,12.35
2022-08-26T18:58:03.126Z,12.63
2022-08-26T19:00:36.390Z,16.62
2022-08-26T19:03:18.712Z,16.52
2022-08-26T19:05:45.775Z,13.45
2022-08-26T19:08:19.065Z,15.08
2022-08-26T19:10:52.369Z,20.82
2022-08-26T19:13:26.267Z,19.40
2022-08-26T19:15:59.585Z,16.97
2022-08-26T19:18:34.784Z,16.17
2022-08-26T19:21:08.401Z,19.98
2022-08-26T19:23:42.404Z,17.70
2022-08-26T19:26:17.500Z,18.17
2022-08-26T19:28:50.996Z,16.00
2022-08-26T19:31:24.807Z,18.17
2022-08-26T19:33:59.173Z,16.95
2022-08-26T19:36:32.997Z,21.02
2022-08-26T19:39:10.448Z,14.68
2022-08-26T19:44:20.327Z,26.20
2022-08-26T19:46:57.116Z,18.27
2022-08-26T19:49:30.816Z,24.17
2022-08-26T19:52:07.375Z,19.82
2022-08-26T19:54:41.806Z,28.15
2022-08-26T19:57:16.547Z,20.70
2022-08-26T19:59:50.265Z,22.50
2022-08-26T20:02:23.845Z,26.17
2022-08-26T20:04:57.699Z,19.67
2022-08-26T20:07:31.280Z,20.75
2022-08-26T20:10:05.644Z,22.37
2022-08-26T20:12:39.236Z,20.97
2022-08-26T20:15:14.440Z,25.80
2022-08-26T20:17:47.793Z,22.65
2022-08-26T20:20:40.766Z,19.55
2022-08-26T20:23:15.835Z,22.90
2022-08-26T20:25:49.081Z,23.98
2022-08-26T20:28:22.814Z,20.62
2022-08-26T20:30:56.377Z,23.50
2022-08-26T20:33:30.489Z,20.37
2022-08-26T20:36:08.108Z,23.00
2022-08-26T20:38:41.787Z,23.67
2022-08-26T20:41:15.593Z,20.05
2022-08-26T20:43:49.241Z,34.73
2022-08-26T20:46:24.870Z,25.57
2022-08-26T20:48:58.234Z,22.25
2022-08-26T20:51:32.323Z,26.85
2022-08-26T20:54:06.341Z,26.75
2022-08-26T20:56:40.573Z,24.25
2022-08-26T20:59:14.359Z,19.55
2022-08-26T21:01:51.935Z,26.40
2022-08-26T21:06:58.523Z,22.82
2022-08-26T21:09:31.895Z,27.17
2022-08-26T21:12:06.116Z,26.52
2022-08-26T21:14:39.591Z,24.92
2022-08-26T21:17:13.201Z,25.88
2022-08-26T21:19:46.659Z,25.90
2022-08-26T21:22:20.560Z,19.05
2022-08-26T21:24:54.146Z,21.95
2022-08-26T21:27:28.015Z,22.77
2022-08-26T21:30:01.609Z,21.45
2022-08-26T21:32:36.211Z,21.02
2022-08-26T21:35:11.632Z,24.57
2022-08-26T21:37:45.157Z,18.00
2022-08-26T21:40:19.223Z,20.00
2022-08-26T21:42:52.616Z,25.97
2022-08-26T21:45:26.099Z,23.75
2022-08-26T21:47:59.870Z,27.65
2022-08-26T21:50:33.397Z,21.23
2022-08-26T21:53:06.899Z,24.07
2022-08-26T21:55:42.368Z,22.82
2022-08-26T21:58:16.448Z,24.25
2022-08-26T22:00:52.181Z,24.90
2022-08-26T22:03:25.992Z,24.07
2022-08-26T22:06:01.315Z,21.27
2022-08-26T22:08:35.206Z,18.42
2022-08-26T22:11:09.628Z,18.60
2022-08-26T22:13:44.427Z,25.85
2022-08-26T22:16:19.304Z,24.15
2022-08-26T22:18:53.452Z,23.40
2022-08-26T22:21:28.875Z,16.15
2022-08-26T22:24:03.002Z,27.27
2022-08-26T22:26:37.268Z,23.90
2022-08-26T22:29:10.849Z,23.87
2022-08-26T22:31:45.413Z,17.42
2022-08-26T22:34:20.863Z,25.65
2022-08-26T22:36:54.702Z,17.35
2022-08-26T22:39:29.021Z,23.55
2022-08-26T22:42:04.284Z,27.00
2022-08-26T22:44:37.863Z,24.00
2022-08-26T22:47:11.568Z,23.77
2022-08-26T22:49:45.868Z,21.30
2022-08-26T22:52:19.230Z,24.32
2022-08-26T22:54:53.088Z,28.92
2022-08-26T22:57:26.844Z,24.25
2022-08-26T23:00:00.963Z,25.45
2022-08-26T23:02:35.146Z,33.53
2022-08-26T23:05:11.612Z,22.07
2022-08-26T23:07:45.055Z,23.30
2022-08-26T23:10:18.880Z,24.23
2022-08-26T23:12:53.275Z,22.13
2022-08-26T23:15:27.492Z,23.15
2022-08-26T23:18:01.393Z,23.02
2022-08-26T23:20:36.096Z,28.90
2022-08-26T23:23:10.713Z,26.85
2022-08-26T23:25:44.556Z,24.80
2022-08-26T23:28:18.623Z,23.80
2022-08-26T23:30:53.810Z,26.20
2022-08-26T23:33:29.342Z,29.63
2022-08-26T23:36:08.534Z,24.12
2022-08-26T23:38:42.860Z,24.80
2022-08-26T23:41:17.208Z,25.77
2022-08-26T23:43:50.853Z,30.12
2022-08-26T23:46:24.547Z,24.45
2022-08-26T23:48:58.050Z,24.35
2022-08-26T23:51:49.472Z,25.92
2022-08-26T23:54:22.939Z,23.40
2022-08-26T23:56:57.036Z,27.17
2022-08-26T23:59:30.605Z,23.00
